Time;durP1;ratioP1;P1;durP2;ratioP2;P2;SDS_P1;SDS_P2;PMS_P1;PMS_P2;Temp;Humidity;BMP_temperature;BMP_pressure;BME280_temperature;BME280_humidity;BME280_pressure;Samples;Min_cycle;Max_cycle;Signal;HPM_P1;HPM_P2
2022/07/14 00:00:54;;;;;;;0.80;0.60;;;;;;;24.32;33.52;99130.75;5088916;28;43753;-79
2022/07/14 00:03:23;;;;;;;0.70;0.70;;;;;;;24.28;34.08;99119.44;5073431;28;43720;-78
2022/07/14 00:05:51;;;;;;;0.60;0.60;;;;;;;24.27;34.38;99114.19;5091555;28;40066;-76
2022/07/14 00:08:19;;;;;;;1.00;0.80;;;;;;;24.26;34.57;99120.63;5073907;28;42714;-78
2022/07/14 00:10:46;;;;;;;1.83;0.70;;;;;;;24.19;34.41;99106.09;5090465;28;42833;-77
2022/07/14 00:13:14;;;;;;;0.73;0.73;;;;;;;24.28;34.48;99124.84;5092128;28;43019;-77
2022/07/14 00:15:42;;;;;;;0.80;0.80;;;;;;;24.29;34.30;99125.69;5090826;28;39928;-78
2022/07/14 00:18:10;;;;;;;0.50;0.50;;;;;;;24.26;34.66;99131.44;5091792;28;41788;-77
2022/07/14 00:20:39;;;;;;;0.73;0.70;;;;;;;24.22;34.52;99125.56;5073486;28;41594;-75
2022/07/14 00:23:07;;;;;;;0.77;0.70;;;;;;;24.16;34.50;99109.13;5090600;28;42844;-76
2022/07/14 00:25:35;;;;;;;0.80;0.70;;;;;;;24.20;35.04;99124.84;5090342;28;40518;-77
2022/07/14 00:28:02;;;;;;;1.03;0.70;;;;;;;24.17;34.97;99117.09;5073607;28;41615;-77
2022/07/14 00:30:30;;;;;;;0.53;0.53;;;;;;;24.15;35.15;99113.69;5090488;28;42716;-76
2022/07/14 00:32:58;;;;;;;0.80;0.80;;;;;;;24.13;34.97;99115.72;5073510;28;41494;-76
2022/07/14 00:35:26;;;;;;;0.60;0.60;;;;;;;24.10;35.08;99109.84;5090178;28;39410;-77
2022/07/14 00:37:55;;;;;;;0.50;0.50;;;;;;;24.07;35.32;99115.59;5090454;28;40557;-76
2022/07/14 00:40:23;;;;;;;0.60;0.60;;;;;;;24.05;35.22;99104.13;5073175;28;41609;-78
2022/07/14 00:42:51;;;;;;;0.70;0.70;;;;;;;24.02;35.56;99101.75;5073356;28;40982;-75
2022/07/14 00:45:24;;;;;;;0.50;0.50;;;;;;;23.98;35.86;99099.38;5073297;28;38870;-78
2022/07/14 00:47:52;;;;;;;0.70;0.70;;;;;;;23.94;35.60;99095.38;5088340;28;42720;-76
2022/07/14 00:50:20;;;;;;;0.50;0.50;;;;;;;23.90;36.38;99094.03;5072874;28;41488;-76
2022/07/14 00:52:50;;;;;;;0.50;0.43;;;;;;;23.86;36.45;99089.97;5073192;28;42013;-76
2022/07/14 00:55:20;;;;;;;0.80;0.67;;;;;;;23.80;36.87;99087.97;5090367;28;40234;-78
2022/07/14 00:57:48;;;;;;;0.97;0.70;;;;;;;23.75;36.89;99084.09;5089732;28;41743;-76
2022/07/14 01:00:17;;;;;;;0.70;0.70;;;;;;;23.74;37.04;99104.88;5089045;28;43822;-76
2022/07/14 01:03:03;;;;;;;1.47;0.87;;;;;;;23.72;37.08;99101.53;5073117;28;43239;-78
2022/07/14 01:14:42;;;;;;;0.70;0.70;;;;;;;23.57;37.39;99100.56;5092387;28;43994;-77
2022/07/14 01:17:10;;;;;;;0.70;0.70;;;;;;;23.55;37.38;99100.72;5058568;28;42691;-78
2022/07/14 01:19:38;;;;;;;0.80;0.80;;;;;;;23.54;37.31;99103.59;5075811;28;40142;-77
2022/07/14 01:22:08;;;;;;;0.60;0.60;;;;;;;23.53;37.79;99101.91;5074857;28;41692;-77
2022/07/14 01:24:36;;;;;;;0.57;0.57;;;;;;;23.50;37.56;99103.09;5092687;28;42882;-77
2022/07/14 01:27:04;;;;;;;2.30;0.90;;;;;;;23.49;37.62;99100.53;5075457;28;42854;-76
2022/07/14 01:29:32;;;;;;;0.83;0.73;;;;;;;23.49;37.71;99097.84;5092549;28;39907;-77
2022/07/14 01:32:00;;;;;;;0.80;0.80;;;;;;;23.47;37.57;99091.75;5074953;28;42631;-76
2022/07/14 01:34:28;;;;;;;0.80;0.70;;;;;;;23.47;37.60;99091.75;5092081;28;41677;-79
2022/07/14 01:36:57;;;;;;;0.80;0.80;;;;;;;23.45;37.88;99085.69;5075157;28;42223;-79
2022/07/14 01:39:26;;;;;;;4.60;1.53;;;;;;;23.46;37.46;99084.66;5076512;28;40037;-78
2022/07/14 01:41:54;;;;;;;0.77;0.77;;;;;;;23.45;37.89;99088.38;5092766;28;42585;-77
2022/07/14 01:44:22;;;;;;;0.67;0.67;;;;;;;23.41;38.01;99081.63;5076193;28;41654;-78
2022/07/14 01:46:50;;;;;;;0.80;0.80;;;;;;;23.43;37.68;99091.25;5075652;28;41495;-75
2022/07/14 01:49:21;;;;;;;0.87;0.80;;;;;;;23.41;37.92;99084.31;5076255;28;39120;-78
2022/07/14 01:51:49;;;;;;;0.87;0.87;;;;;;;23.38;38.16;99081.97;5092493;28;41528;-75
2022/07/14 01:54:20;;;;;;;1.80;0.90;;;;;;;23.35;38.19;99077.75;5090041;28;43868;-76
2022/07/14 01:56:49;;;;;;;0.90;0.90;;;;;;;23.35;38.54;99076.91;5075726;28;42254;-76
2022/07/14 01:59:17;;;;;;;1.20;1.00;;;;;;;23.33;38.33;99076.25;5092883;28;39952;-77
2022/07/14 02:01:46;;;;;;;1.07;0.80;;;;;;;23.32;39.77;99058.34;5074354;28;41778;-78
2022/07/14 02:04:17;;;;;;;2.67;1.20;;;;;;;23.32;39.62;99058.34;5092640;28;42735;-78
2022/07/14 02:06:47;;;;;;;0.83;0.83;;;;;;;23.32;38.96;99061.88;5075233;28;42927;-79
2022/07/14 02:12:10;;;;;;;0.80;0.80;;;;;;;23.33;39.16;99073.53;5089838;28;40130;-76
2022/07/14 02:12:15;;;;;;;1.00;0.80;;;;;;;23.33;38.90;99068.13;5089714;28;42620;-78
2022/07/14 02:14:44;;;;;;;3.03;1.00;;;;;;;23.29;38.82;99073.88;5092292;28;42723;-78
2022/07/14 02:17:13;;;;;;;1.63;0.90;;;;;;;23.19;38.96;99065.13;5075345;28;41098;-78
2022/07/14 02:19:41;;;;;;;1.00;0.70;;;;;;;23.21;38.93;99075.75;5075544;28;39793;-78
2022/07/14 02:22:09;;;;;;;0.90;0.63;;;;;;;23.16;39.17;99073.56;5092431;28;44245;-78
2022/07/14 02:24:37;;;;;;;0.80;0.80;;;;;;;23.13;39.20;99075.75;5092522;28;42724;-76
2022/07/14 02:27:04;;;;;;;0.63;0.63;;;;;;;23.08;39.64;99070.88;5075549;28;41118;-76
2022/07/14 02:29:34;;;;;;;0.90;0.70;;;;;;;23.04;39.66;99069.50;5092649;28;39292;-79
2022/07/14 02:32:01;;;;;;;1.40;0.60;;;;;;;23.01;39.50;99069.00;5075055;28;41196;-76
2022/07/14 02:34:30;;;;;;;0.70;0.70;;;;;;;22.96;39.65;99072.22;5092044;28;43498;-76
2022/07/14 02:36:57;;;;;;;0.70;0.70;;;;;;;22.89;40.08;99073.91;5091790;28;42471;-78
2022/07/14 02:39:25;;;;;;;0.77;0.77;;;;;;;22.82;40.30;99070.19;5092422;28;39881;-77
2022/07/14 02:41:53;;;;;;;1.20;1.10;;;;;;;22.73;40.34;99072.03;5092001;28;41759;-78
2022/07/14 02:44:21;;;;;;;1.60;0.83;;;;;;;22.64;40.13;99072.16;5092167;28;43723;-75
2022/07/14 02:46:50;;;;;;;1.03;0.80;;;;;;;22.52;40.39;99061.69;5091905;28;43027;-77
2022/07/14 02:49:18;;;;;;;0.70;0.70;;;;;;;22.48;40.65;99056.81;5075278;28;39152;-78
2022/07/14 02:51:48;;;;;;;0.97;0.83;;;;;;;22.38;40.52;99059.63;5091719;28;41797;-77
2022/07/14 02:54:15;;;;;;;0.97;0.87;;;;;;;22.31;41.59;99053.22;5091948;28;43719;-78
2022/07/14 02:56:43;;;;;;;0.83;0.80;;;;;;;22.24;41.47;99044.13;5074765;28;41175;-76
2022/07/14 02:59:11;;;;;;;1.03;0.93;;;;;;;22.18;41.42;99047.47;5075001;28;38983;-78
2022/07/14 03:01:42;;;;;;;1.00;0.90;;;;;;;22.12;41.61;99062.47;5074852;28;42169;-75
2022/07/14 03:04:17;;;;;;;0.90;0.90;;;;;;;22.05;41.42;99061.41;5074321;28;41668;-78
2022/07/14 03:06:45;;;;;;;1.17;0.80;;;;;;;21.97;41.89;99069.47;5091336;28;42929;-78
2022/07/14 03:09:16;;;;;;;1.43;0.90;;;;;;;21.91;41.87;99070.09;5089008;28;39666;-78
2022/07/14 03:11:44;;;;;;;1.00;0.90;;;;;;;21.82;42.26;99071.94;5074344;28;41723;-75
2022/07/14 03:14:12;;;;;;;0.70;0.70;;;;;;;21.78;42.34;99070.53;5091749;28;42854;-74
2022/07/14 03:16:40;;;;;;;0.97;0.90;;;;;;;21.71;42.67;99063.28;5074158;28;41226;-78
2022/07/14 03:19:10;;;;;;;1.03;0.90;;;;;;;21.64;42.76;99046.88;5074700;28;38665;-78
2022/07/14 03:21:40;;;;;;;0.90;0.90;;;;;;;21.58;43.46;99036.78;5074309;28;40922;-76
2022/07/14 03:24:10;;;;;;;0.90;0.90;;;;;;;21.55;43.67;99038.94;5088418;28;43753;-77
2022/07/14 03:26:39;;;;;;;1.00;0.77;;;;;;;21.47;44.04;99040.59;5074197;28;42174;-77
2022/07/14 03:29:08;;;;;;;0.87;0.87;;;;;;;21.45;43.83;99057.91;5074600;28;39638;-78
2022/07/14 03:31:36;;;;;;;0.70;0.70;;;;;;;21.40;43.97;99050.31;5090450;28;40399;-78
2022/07/14 03:34:07;;;;;;;1.63;0.97;;;;;;;21.36;43.97;99043.56;5074661;28;42063;-77
2022/07/14 03:36:37;;;;;;;1.87;0.80;;;;;;;21.32;43.79;99050.28;5074334;28;40946;-75
2022/07/14 03:39:07;;;;;;;1.67;1.03;;;;;;;21.25;44.30;99045.69;5074359;28;39016;-75
2022/07/14 03:41:36;;;;;;;0.87;0.63;;;;;;;21.20;44.17;99048.00;5090416;28;41595;-75
2022/07/14 03:44:05;;;;;;;0.90;0.90;;;;;;;21.14;44.47;99044.88;5091225;28;42858;-78
2022/07/14 03:46:33;;;;;;;1.10;0.90;;;;;;;21.10;44.62;99051.63;5073798;28;41382;-77
2022/07/14 03:49:08;;;;;;;1.10;1.00;;;;;;;21.07;44.95;99059.16;5074481;28;38751;-76
2022/07/14 03:51:41;;;;;;;0.80;0.80;;;;;;;21.02;45.22;99053.38;5090697;28;42454;-76
2022/07/14 03:54:12;;;;;;;1.10;1.03;;;;;;;20.97;46.03;99048.50;5073306;28;42503;-76
2022/07/14 03:56:40;;;;;;;1.40;1.00;;;;;;;20.93;45.87;99051.66;5090748;28;42662;-77
2022/07/14 03:59:10;;;;;;;1.00;1.00;;;;;;;20.88;46.38;99044.06;5073997;28;38807;-78
2022/07/14 04:01:38;;;;;;;2.53;1.20;;;;;;;20.86;46.21;99046.06;5090654;28;42818;-75
2022/07/14 04:04:06;;;;;;;1.20;1.10;;;;;;;20.84;46.44;99052.59;5074058;28;43844;-78
2022/07/14 04:06:34;;;;;;;1.00;1.00;;;;;;;20.84;46.07;99057.97;5090421;28;43214;-75
2022/07/14 04:09:05;;;;;;;0.80;0.80;;;;;;;20.83;46.25;99057.13;5073971;28;38930;-75
2022/07/14 04:11:38;;;;;;;1.37;1.10;;;;;;;20.84;46.42;99058.81;5073637;28;40858;-75
2022/07/14 04:14:06;;;;;;;1.20;1.20;;;;;;;20.86;47.37;99051.44;5090880;28;42926;-75
2022/07/14 04:16:34;;;;;;;1.00;1.00;;;;;;;20.89;46.97;99037.66;5090486;28;42311;-73
2022/07/14 04:19:02;;;;;;;1.70;1.30;;;;;;;20.95;46.71;99055.88;5073815;28;40196;-78
2022/07/14 04:21:31;;;;;;;1.00;1.00;;;;;;;21.03;46.18;99061.31;5073192;28;42239;-77
2022/07/14 04:23:59;;;;;;;1.20;1.10;;;;;;;21.10;46.21;99057.00;5090399;28;42791;-75
2022/07/14 04:26:27;;;;;;;1.17;1.07;;;;;;;21.22;46.77;99062.16;5090483;28;42096;-77
2022/07/14 04:28:57;;;;;;;1.17;1.07;;;;;;;21.27;47.67;99054.44;5090809;28;40041;-77
2022/07/14 04:31:25;;;;;;;1.63;1.23;;;;;;;21.37;47.36;99052.50;5073353;28;41793;-77
2022/07/14 04:33:53;;;;;;;1.30;1.20;;;;;;;21.46;46.92;99051.53;5073511;28;42352;-75
2022/07/14 04:36:21;;;;;;;1.30;1.10;;;;;;;21.53;46.75;99039.09;5090317;28;43155;-78
2022/07/14 04:38:49;;;;;;;1.10;1.00;;;;;;;21.63;46.40;99050.63;5073589;28;38814;-79
2022/07/14 04:41:18;;;;;;;1.33;1.00;;;;;;;21.72;46.53;99055.03;5090263;28;41667;-76
2022/07/14 04:43:46;;;;;;;1.43;1.23;;;;;;;21.73;47.08;99054.03;5075012;28;43551;-76
2022/07/14 04:46:16;;;;;;;1.13;1.10;;;;;;;21.70;46.97;99056.19;5076814;28;42580;-76
2022/07/14 04:54:23;;;;;;;1.20;1.10;;;;;;;21.73;47.17;99061.28;5076874;28;44261;-75
2022/07/14 04:57:26;;;;;;;1.90;1.30;;;;;;;21.77;47.68;99060.75;5055601;28;41228;-76
2022/07/14 04:59:54;;;;;;;1.60;1.37;;;;;;;21.86;47.58;99059.81;5089092;28;40168;-76
2022/07/14 05:02:24;;;;;;;1.13;1.10;;;;;;;22.04;47.10;99050.78;5076704;28;42730;-75
2022/07/14 05:04:51;;;;;;;1.53;1.27;;;;;;;22.21;47.34;99039.03;5094385;28;42723;-76
2022/07/14 05:07:19;;;;;;;1.50;1.20;;;;;;;22.39;46.72;99042.44;5076444;28;42303;-75
2022/07/14 05:09:54;;;;;;;3.60;1.70;;;;;;;22.55;46.64;99047.88;5090925;28;40726;-77
2022/07/14 05:12:22;;;;;;;1.37;1.27;;;;;;;22.70;46.83;99041.81;5076622;28;41508;-77
2022/07/14 05:14:50;;;;;;;1.23;1.10;;;;;;;22.81;46.42;99046.91;5094346;28;42575;-78
2022/07/14 05:17:18;;;;;;;1.67;1.57;;;;;;;22.91;47.17;99052.97;5093511;28;42972;-76
2022/07/14 05:20:00;;;;;;;2.60;1.40;;;;;;;22.95;47.45;99040.81;5090515;28;39720;-76
2022/07/14 05:22:34;;;;;;;2.07;1.50;;;;;;;22.96;47.32;99038.97;5090338;28;41760;-75
2022/07/14 05:25:06;;;;;;;1.87;1.50;;;;;;;22.99;47.06;99036.78;5090692;28;42724;-78
2022/07/14 05:27:34;;;;;;;2.20;1.27;;;;;;;22.95;46.89;99023.78;5076746;28;42130;-79
2022/07/14 05:30:02;;;;;;;1.47;1.37;;;;;;;23.02;46.75;99028.31;5093527;28;40961;-79
2022/07/14 05:32:30;;;;;;;1.43;1.33;;;;;;;23.24;46.76;99049.22;5093177;28;42691;-76
2022/07/14 05:35:00;;;;;;;1.30;1.20;;;;;;;23.36;47.71;99041.63;5076075;28;41620;-76
2022/07/14 05:37:28;;;;;;;1.30;1.20;;;;;;;23.49;47.49;99036.47;5093094;28;42984;-79
2022/07/14 05:39:56;;;;;;;2.10;1.37;;;;;;;23.60;47.13;99038.03;5076049;28;39990;-79
2022/07/14 05:42:24;;;;;;;1.70;1.13;;;;;;;23.73;46.72;99046.44;5076028;28;40772;-77
2022/07/14 05:44:53;;;;;;;1.73;1.43;;;;;;;23.85;46.52;99036.06;5075889;28;43522;-75
2022/07/14 05:47:20;;;;;;;2.90;1.47;;;;;;;23.98;46.10;99033.63;5076083;28;41202;-75
2022/07/14 05:49:48;;;;;;;1.47;1.37;;;;;;;24.11;46.29;99025.75;5093039;28;40018;-80
2022/07/14 05:52:18;;;;;;;1.63;1.53;;;;;;;24.22;46.30;99038.06;5092982;28;41749;-77
2022/07/14 05:54:46;;;;;;;2.53;1.80;;;;;;;24.30;45.80;99035.34;5075358;28;41795;-76
2022/07/14 05:57:15;;;;;;;1.40;1.30;;;;;;;24.36;45.23;99031.09;5075606;28;41088;-77
2022/07/14 05:59:44;;;;;;;2.30;1.30;;;;;;;24.44;45.29;99029.16;5092719;28;40393;-76
2022/07/14 06:02:12;;;;;;;1.60;1.50;;;;;;;24.52;45.30;99034.50;5092599;28;42762;-75
2022/07/14 06:04:40;;;;;;;2.30;1.83;;;;;;;24.58;45.08;99033.81;5092563;28;42781;-75
2022/07/14 06:07:08;;;;;;;2.00;1.70;;;;;;;24.60;44.64;99023.59;5075764;28;41552;-75
2022/07/14 06:09:40;;;;;;;2.50;1.67;;;;;;;24.63;44.76;99030.53;5092822;28;39811;-76
2022/07/14 06:12:10;;;;;;;2.00;1.73;;;;;;;24.55;44.68;99012.50;5089172;28;41753;-78
2022/07/14 06:14:43;;;;;;;2.23;1.80;;;;;;;24.62;44.34;99018.84;5089344;28;43995;-76
2022/07/14 06:17:12;;;;;;;4.50;1.70;;;;;;;24.54;44.60;99048.72;5089433;28;42762;-82
2022/07/14 06:19:40;;;;;;;2.97;1.90;;;;;;;24.60;44.62;99058.81;5092794;28;39767;-76
2022/07/14 06:22:08;;;;;;;2.57;2.03;;;;;;;24.64;44.72;99057.44;5093754;28;41540;-79
2022/07/14 06:24:41;;;;;;;2.00;1.60;;;;;;;24.82;44.91;99053.59;5093343;28;42730;-73
2022/07/14 06:27:09;;;;;;;1.80;1.60;;;;;;;25.03;45.15;99053.75;5089525;28;42377;-77
2022/07/14 06:29:37;;;;;;;2.27;1.67;;;;;;;25.30;44.22;99060.47;5092632;28;39818;-76
2022/07/14 06:32:06;;;;;;;2.63;1.63;;;;;;;25.56;43.77;99065.44;5092241;28;41526;-72
2022/07/14 06:34:33;;;;;;;3.03;1.77;;;;;;;25.82;43.71;99065.84;5075363;28;41663;-79
2022/07/14 06:37:19;;;;;;;2.50;1.80;;;;;;;26.02;43.14;99072.38;5092576;28;41347;-78
2022/07/14 06:39:50;;;;;;;2.57;2.17;;;;;;;26.14;42.42;99070.00;5075217;28;40316;-76
2022/07/14 06:42:19;;;;;;;2.73;1.70;;;;;;;26.21;42.54;99060.06;5075569;28;40766;-77
2022/07/14 06:45:08;;;;;;;2.90;2.03;;;;;;;26.21;42.22;99042.97;5092126;28;41508;-80
2022/07/14 06:47:36;;;;;;;2.90;1.90;;;;;;;26.35;42.60;99055.66;5074942;28;42834;-76
2022/07/14 06:50:04;;;;;;;3.93;1.97;;;;;;;26.44;42.25;99055.38;5093082;28;40297;-76
2022/07/14 06:52:32;;;;;;;2.07;1.70;;;;;;;26.70;41.86;99057.53;5075278;28;40989;-77
2022/07/14 06:55:03;;;;;;;1.87;1.77;;;;;;;27.07;41.18;99066.47;5093164;28;43851;-80
2022/07/14 06:57:31;;;;;;;3.20;2.13;;;;;;;27.37;40.70;99067.09;5090045;28;42379;-77
2022/07/14 06:59:59;;;;;;;2.23;1.70;;;;;;;27.49;40.34;99071.78;5092992;28;39872;-77
2022/07/14 07:02:27;;;;;;;2.80;1.83;;;;;;;27.58;39.64;99066.22;5090109;28;41814;-73
2022/07/14 07:07:36;;;;;;;2.40;1.40;;;;;;;27.99;39.39;99060.81;5086720;28;42405;-75
2022/07/14 07:10:07;;;;;;;3.23;1.50;;;;;;;28.23;38.59;99058.44;5092907;28;40896;-76
2022/07/14 07:12:35;;;;;;;3.03;1.70;;;;;;;28.52;38.18;99050.97;5089987;28;41738;-75
2022/07/14 07:15:03;;;;;;;3.30;1.83;;;;;;;29.02;37.70;99056.94;5091721;28;43780;-74
2022/07/14 07:17:30;;;;;;;4.93;1.80;;;;;;;29.26;37.13;99054.44;5091797;28;43153;-76
2022/07/14 07:19:58;;;;;;;2.53;1.63;;;;;;;29.38;37.46;99062.84;5074459;28;38813;-80
2022/07/14 07:22:25;;;;;;;1.50;1.40;;;;;;;29.39;36.53;99064.53;5091583;28;43940;-78
2022/07/14 07:24:53;;;;;;;1.93;1.73;;;;;;;29.37;37.13;99052.94;5092390;28;43093;-82
2022/07/14 07:27:23;;;;;;;2.40;1.50;;;;;;;29.41;36.96;99050.66;5091458;28;43080;-80
2022/07/14 07:29:50;;;;;;;2.00;1.50;;;;;;;29.55;36.21;99057.78;5091065;28;40584;-79
2022/07/14 07:32:18;;;;;;;3.37;1.83;;;;;;;29.73;36.14;99060.66;5092569;28;41875;-73
2022/07/14 07:34:47;;;;;;;1.40;1.30;;;;;;;30.18;35.79;99061.59;5091029;28;41376;-81
2022/07/14 07:37:14;;;;;;;1.97;1.30;;;;;;;30.34;35.56;99061.09;5074698;28;42830;-78
2022/07/14 07:39:42;;;;;;;1.60;1.50;;;;;;;30.28;35.36;99059.25;5074140;28;39782;-76
2022/07/14 07:42:10;;;;;;;1.50;1.37;;;;;;;30.28;35.39;99059.25;5091266;28;41909;-76
2022/07/14 07:44:40;;;;;;;1.60;1.50;;;;;;;30.43;34.74;99060.84;5091388;28;42805;-79
2022/07/14 07:47:08;;;;;;;2.33;1.40;;;;;;;30.79;33.94;99044.66;5092386;28;43526;-79
2022/07/14 07:49:35;;;;;;;1.40;1.30;;;;;;;31.81;32.86;99058.97;5091468;28;40098;-74
2022/07/14 07:52:03;;;;;;;2.20;1.57;;;;;;;33.29;31.05;99053.78;5091767;28;42699;-78
2022/07/14 07:54:31;;;;;;;1.60;1.50;;;;;;;33.98;29.73;99057.59;5090919;28;42840;-80
2022/07/14 07:56:59;;;;;;;2.53;1.57;;;;;;;34.01;29.75;99065.31;5092045;28;42221;-80
2022/07/14 07:59:27;;;;;;;2.30;1.47;;;;;;;34.08;28.67;99066.06;5092332;28;40896;-81
2022/07/14 08:01:56;;;;;;;2.53;1.73;;;;;;;34.23;27.97;99058.13;5073236;28;41831;-78
2022/07/14 08:04:24;;;;;;;1.70;1.60;;;;;;;34.23;27.83;99060.88;5091082;28;41688;-79
2022/07/14 08:06:52;;;;;;;1.50;1.40;;;;;;;34.63;28.14;99052.59;5090589;28;42294;-77
2022/07/14 08:09:19;;;;;;;2.53;1.47;;;;;;;35.60;27.32;99052.38;5092261;28;39894;-82
2022/07/14 08:11:47;;;;;;;1.40;1.30;;;;;;;36.42;26.21;99057.06;5091016;28;42698;-77
2022/07/14 08:17:01;;;;;;;1.50;1.40;;;;;;;37.35;24.43;99053.84;5091374;28;41007;-79
2022/07/14 08:19:29;;;;;;;1.97;1.80;;;;;;;37.48;24.71;99051.72;5094907;28;40132;-77
2022/07/14 08:21:57;;;;;;;1.57;1.47;;;;;;;38.70;23.58;99059.53;5077546;28;40389;-80
2022/07/14 08:24:25;;;;;;;2.80;1.77;;;;;;;40.57;21.70;99054.84;5094550;28;43815;-78
2022/07/14 08:26:53;;;;;;;1.67;1.58;;;;;;;41.33;20.58;99061.84;5094255;28;42223;-79
2022/07/14 08:29:20;;;;;;;1.60;1.50;;;;;;;40.97;20.68;99062.13;5095589;28;40724;-79
2022/07/14 08:31:48;;;;;;;2.25;1.40;;;;;;;40.64;21.04;99055.38;5095307;28;41649;-78
2022/07/14 08:34:18;;;;;;;1.45;1.35;;;;;;;40.54;21.07;99069.31;5095443;28;42725;-79
2022/07/14 08:36:46;;;;;;;1.63;1.40;;;;;;;39.73;21.32;99056.53;5094911;28;42266;-79
2022/07/14 08:39:14;;;;;;;1.67;1.58;;;;;;;38.81;22.29;99052.13;5094180;28;40176;-74
2022/07/14 08:41:41;;;;;;;3.50;1.60;;;;;;;38.14;23.26;99049.41;5093683;28;42695;-77
2022/07/14 08:44:10;;;;;;;2.10;1.90;;;;;;;37.60;23.76;99033.00;5095191;28;42482;-82
2022/07/14 08:46:38;;;;;;;2.27;1.60;;;;;;;37.19;24.24;99032.75;5093919;28;41922;-79
2022/07/14 08:49:07;;;;;;;1.57;1.47;;;;;;;37.14;24.81;99032.66;5094281;28;39605;-79
2022/07/14 08:51:39;;;;;;;1.77;1.67;;;;;;;37.49;24.94;99025.75;5093781;28;41843;-78
2022/07/14 08:54:10;;;;;;;2.40;1.60;;;;;;;37.78;24.12;99024.31;5093971;28;41856;-80
2022/07/14 08:56:38;;;;;;;2.40;1.47;;;;;;;37.68;23.76;99013.22;5093874;28;43356;-81
2022/07/14 08:59:06;;;;;;;1.67;1.57;;;;;;;37.38;23.92;99003.59;5077130;28;38715;-76
2022/07/14 09:01:34;;;;;;;1.83;1.67;;;;;;;37.12;24.67;98998.13;5076650;28;41782;-77
2022/07/14 09:04:02;;;;;;;1.40;1.30;;;;;;;37.00;25.37;98990.03;5093620;28;42575;-76
2022/07/14 09:06:52;;;;;;;1.60;1.50;;;;;;;36.94;24.73;98999.38;5094227;28;43245;-75
2022/07/14 09:09:21;;;;;;;4.70;1.83;;;;;;;37.00;24.46;99001.06;5093711;28;40911;-78
2022/07/14 09:11:51;;;;;;;2.43;1.77;;;;;;;37.20;24.66;98984.69;5093429;28;43490;-80
2022/07/14 09:14:19;;;;;;;2.27;1.53;;;;;;;37.53;24.70;98994.56;5093651;28;42007;-79
2022/07/14 09:16:47;;;;;;;1.73;1.50;;;;;;;37.90;24.00;98993.69;5093393;28;41862;-79
2022/07/14 09:19:18;;;;;;;1.93;1.50;;;;;;;38.23;24.00;98989.66;5093672;28;39758;-78
2022/07/14 09:21:54;;;;;;;1.67;1.53;;;;;;;38.48;23.43;98995.25;5094012;28;42730;-79
2022/07/14 09:24:24;;;;;;;2.67;1.90;;;;;;;38.75;23.17;99001.41;5076605;28;41839;-79
2022/07/14 09:26:53;;;;;;;3.83;1.60;;;;;;;38.96;22.99;99002.25;5094364;28;42156;-77
2022/07/14 09:29:26;;;;;;;1.90;1.47;;;;;;;38.97;22.85;98986.47;5093997;28;40133;-75
2022/07/14 09:31:54;;;;;;;1.70;1.60;;;;;;;39.24;22.97;99008.38;5093463;28;40676;-74
2022/07/14 09:34:28;;;;;;;2.65;1.67;;;;;;;39.34;22.52;99009.19;5093726;28;42873;-79
2022/07/14 09:37:14;;;;;;;3.17;2.00;;;;;;;39.34;22.27;99005.56;5093157;28;42458;-75
2022/07/14 09:40:06;;;;;;;2.88;1.80;;;;;;;39.71;21.66;98999.69;5093453;28;39145;-77
2022/07/14 09:42:48;;;;;;;1.60;1.50;;;;;;;39.83;21.73;99000.19;5094579;28;41736;-80
2022/07/14 09:45:17;;;;;;;2.15;2.05;;;;;;;40.36;21.62;98995.00;5075918;28;41783;-80
2022/07/14 09:48:01;;;;;;;4.10;1.80;;;;;;;40.56;21.16;98992.09;5076237;28;41228;-76
2022/07/14 09:50:51;;;;;;;3.70;1.70;;;;;;;40.77;21.46;98985.31;5076089;28;38938;-81
2022/07/14 09:53:24;;;;;;;3.13;1.85;;;;;;;41.06;21.37;98992.84;5090230;28;42533;-78
2022/07/14 09:55:57;;;;;;;1.88;1.73;;;;;;;40.82;21.00;98996.38;5091468;28;43560;-80
2022/07/14 09:58:27;;;;;;;2.10;1.90;;;;;;;40.38;21.25;98995.56;5090064;28;42419;-76
2022/07/14 10:00:57;;;;;;;1.73;1.63;;;;;;;39.88;21.83;98971.66;5092293;28;40557;-80
2022/07/14 10:03:27;;;;;;;1.98;1.77;;;;;;;39.55;22.61;98978.69;5092360;28;40686;-80
2022/07/14 10:05:56;;;;;;;1.80;1.70;;;;;;;39.13;22.66;98968.75;5075220;28;42940;-73
2022/07/14 10:08:26;;;;;;;2.23;2.00;;;;;;;38.83;23.20;98968.72;5092913;28;43181;-78
2022/07/14 10:10:58;;;;;;;1.90;1.60;;;;;;;38.45;23.71;98951.56;5093852;28;40183;-77
2022/07/14 10:13:26;;;;;;;1.53;1.43;;;;;;;38.39;23.67;98959.00;5094836;28;42523;-81
2022/07/14 10:15:56;;;;;;;2.57;1.63;;;;;;;38.36;23.81;98950.41;5092301;28;45174;-78
2022/07/14 10:18:25;;;;;;;1.80;1.70;;;;;;;38.42;23.81;98957.63;5075646;28;43854;-77
2022/07/14 10:20:55;;;;;;;1.80;1.70;;;;;;;38.80;24.21;98943.28;5093452;28;39886;-77
2022/07/14 10:23:24;;;;;;;2.10;1.90;;;;;;;39.70;23.22;98957.25;5092835;28;42027;-81
2022/07/14 10:25:52;;;;;;;1.95;1.83;;;;;;;40.31;22.30;98961.75;5092130;28;43029;-79
2022/07/14 10:28:23;;;;;;;1.73;1.60;;;;;;;40.69;21.66;98958.13;5092416;28;42428;-76
2022/07/14 10:31:01;;;;;;;2.08;1.98;;;;;;;41.00;21.48;98955.13;5075169;28;38992;-76
2022/07/14 10:33:37;;;;;;;2.17;1.60;;;;;;;41.33;21.25;98954.25;5090541;28;41751;-78
2022/07/14 10:36:14;;;;;;;2.25;1.48;;;;;;;41.47;21.51;98952.44;5091187;28;43709;-80
2022/07/14 10:39:03;;;;;;;4.97;2.10;;;;;;;41.82;21.09;98947.59;5090497;28;43041;-81
2022/07/14 10:41:47;;;;;;;2.97;1.77;;;;;;;42.27;19.90;98960.91;5090327;28;39972;-79
2022/07/14 10:44:21;;;;;;;2.15;1.75;;;;;;;42.66;19.23;98952.25;5089378;28;41603;-81
2022/07/14 10:46:51;;;;;;;2.38;2.00;;;;;;;42.43;19.22;98964.31;5074988;28;42091;-79
2022/07/14 10:49:19;;;;;;;2.15;1.98;;;;;;;42.33;19.72;98952.47;5093648;28;42816;-76
2022/07/14 10:51:49;;;;;;;2.45;2.25;;;;;;;42.10;20.10;98948.63;5092882;28;40041;-77
2022/07/14 10:54:24;;;;;;;2.08;1.90;;;;;;;41.85;20.03;98941.44;5092360;28;41533;-76
2022/07/14 10:57:09;;;;;;;1.95;1.80;;;;;;;41.74;20.81;98935.19;5091800;28;42906;-79
2022/07/14 10:59:40;;;;;;;2.47;2.05;;;;;;;41.71;20.73;98937.72;5091683;28;43955;-76
2022/07/14 11:02:45;;;;;;;2.22;2.13;;;;;;;41.78;20.39;98930.69;5091256;28;39437;-80
2022/07/14 11:05:14;;;;;;;2.35;2.15;;;;;;;41.55;20.39;98926.78;5092417;28;42008;-76
2022/07/14 11:07:46;;;;;;;2.15;2.05;;;;;;;41.53;20.66;98923.44;5092861;28;42733;-77
2022/07/14 11:10:51;;;;;;;2.15;2.05;;;;;;;41.36;20.71;98922.25;5091646;28;41547;-76
2022/07/14 11:13:19;;;;;;;1.80;1.65;;;;;;;41.05;20.61;98916.19;5078361;28;40071;-76
2022/07/14 11:15:52;;;;;;;2.55;2.20;;;;;;;40.58;21.69;98903.78;5091444;28;42000;-75
2022/07/14 11:18:34;;;;;;;2.50;2.30;;;;;;;40.31;21.96;98909.03;5090058;28;42766;-76
2022/07/14 11:21:07;;;;;;;2.30;2.10;;;;;;;40.08;21.70;98903.00;5089966;28;42357;-78
2022/07/14 11:23:37;;;;;;;2.13;2.03;;;;;;;39.82;21.76;98882.88;5089583;28;40678;-76
2022/07/14 11:26:07;;;;;;;2.15;2.00;;;;;;;39.69;22.25;98872.41;5091418;28;41709;-81
2022/07/14 11:28:40;;;;;;;1.77;1.67;;;;;;;39.79;22.75;98882.66;5074617;28;42669;-78
2022/07/14 11:31:16;;;;;;;2.20;2.00;;;;;;;39.82;22.86;98870.97;5090052;28;43136;-79
2022/07/14 11:36:32;;;;;;;2.50;2.30;;;;;;;39.84;22.79;98874.28;5090930;28;42830;-80
2022/07/14 11:39:23;;;;;;;2.53;2.22;;;;;;;40.17;23.19;98862.47;5091443;28;43854;-74
2022/07/14 11:42:02;;;;;;;3.17;2.20;;;;;;;40.51;22.59;98862.50;5090738;28;41314;-78
2022/07/14 11:44:55;;;;;;;2.10;1.90;;;;;;;40.99;22.07;98867.34;5089766;28;40599;-83
2022/07/14 11:47:28;;;;;;;1.60;1.50;;;;;;;41.54;20.69;98872.31;5089324;28;42723;-77
2022/07/14 11:49:58;;;;;;;2.10;2.00;;;;;;;42.09;20.30;98875.44;5089214;28;42884;-80
2022/07/14 11:52:29;;;;;;;1.80;1.70;;;;;;;43.11;20.21;98857.84;5090853;28;42481;-78
2022/07/14 11:54:59;;;;;;;1.75;1.65;;;;;;;44.30;18.39;98878.19;5088519;28;39872;-80
2022/07/14 11:57:27;;;;;;;2.40;2.08;;;;;;;45.35;16.93;98895.31;5092352;28;41899;-75
2022/07/14 12:00:04;;;;;;;3.25;1.52;;;;;;;46.14;16.23;98909.22;5090251;28;43676;-76
2022/07/14 12:02:38;;;;;;;2.15;1.70;;;;;;;46.80;15.84;98898.66;5092138;28;20226;-77
2022/07/14 12:05:08;;;;;;;1.52;1.40;;;;;;;46.79;15.92;98902.63;5073885;28;42238;-78
2022/07/14 12:07:45;;;;;;;1.70;1.60;;;;;;;46.79;15.86;98880.19;5090961;28;40813;-81
2022/07/14 12:10:14;;;;;;;3.55;1.33;;;;;;;48.29;15.48;98881.59;5089000;28;42723;-77
2022/07/14 12:12:44;;;;;;;1.85;1.70;;;;;;;49.61;14.25;98890.75;5073960;28;41218;-76